sensor_id;sensor_type;location;lat;lon;timestamp;temperature;humidity
22974;DHT22;11653;50.848;4.584;2023-04-09T00:01:54;7.50;99.90
22974;DHT22;11653;50.848;4.584;2023-04-09T00:04:20;7.50;99.90
22974;DHT22;11653;50.848;4.584;2023-04-09T00:06:47;7.40;99.90
22974;DHT22;11653;50.848;4.584;2023-04-09T00:09:12;7.40;99.90
22974;DHT22;11653;50.848;4.584;2023-04-09T00:11:38;7.40;99.90
22974;DHT22;11653;50.848;4.584;2023-04-09T00:14:04;7.40;99.90
22974;DHT22;11653;50.848;4.584;2023-04-09T00:16:29;7.30;99.90
22974;DHT22;11653;50.848;4.584;2023-04-09T00:18:55;7.20;99.90
22974;DHT22;11653;50.848;4.584;2023-04-09T00:21:21;7.20;99.90
22974;DHT22;11653;50.848;4.584;2023-04-09T00:23:46;7.20;99.90
22974;DHT22;11653;50.848;4.584;2023-04-09T00:26:12;7.20;99.90
22974;DHT22;11653;50.848;4.584;2023-04-09T00:28:38;7.10;99.90
22974;DHT22;11653;50.848;4.584;2023-04-09T00:31:03;7.00;99.90
22974;DHT22;11653;50.848;4.584;2023-04-09T00:33:29;7.00;99.90
22974;DHT22;11653;50.848;4.584;2023-04-09T00:35:55;7.00;99.90
22974;DHT22;11653;50.848;4.584;2023-04-09T00:38:21;7.00;99.90
22974;DHT22;11653;50.848;4.584;2023-04-09T00:40:50;6.90;99.90
22974;DHT22;11653;50.848;4.584;2023-04-09T00:43:16;6.80;99.90
22974;DHT22;11653;50.848;4.584;2023-04-09T00:45:43;6.90;99.90
22974;DHT22;11653;50.848;4.584;2023-04-09T00:48:12;6.80;99.90
22974;DHT22;11653;50.848;4.584;2023-04-09T00:50:38;6.80;99.90
22974;DHT22;11653;50.848;4.584;2023-04-09T00:53:05;6.80;99.90
22974;DHT22;11653;50.848;4.584;2023-04-09T00:55:30;6.80;99.90
22974;DHT22;11653;50.848;4.584;2023-04-09T00:57:57;6.80;99.90
22974;DHT22;11653;50.848;4.584;2023-04-09T01:00:23;6.80;99.90
22974;DHT22;11653;50.848;4.584;2023-04-09T01:02:49;6.70;99.90
22974;DHT22;11653;50.848;4.584;2023-04-09T01:05:17;6.80;99.90
22974;DHT22;11653;50.848;4.584;2023-04-09T01:08:07;6.80;99.90
22974;DHT22;11653;50.848;4.584;2023-04-09T01:10:50;6.80;99.90
22974;DHT22;11653;50.848;4.584;2023-04-09T01:15:59;6.70;99.90
22974;DHT22;11653;50.848;4.584;2023-04-09T01:21:11;6.70;99.90
22974;DHT22;11653;50.848;4.584;2023-04-09T01:27:01;6.60;99.90
22974;DHT22;11653;50.848;4.584;2023-04-09T01:29:31;6.50;99.90
22974;DHT22;11653;50.848;4.584;2023-04-09T01:31:59;6.60;99.90
22974;DHT22;11653;50.848;4.584;2023-04-09T01:34:27;6.50;99.90
22974;DHT22;11653;50.848;4.584;2023-04-09T01:36:58;6.50;99.90
22974;DHT22;11653;50.848;4.584;2023-04-09T01:39:25;6.50;99.90
22974;DHT22;11653;50.848;4.584;2023-04-09T01:41:52;6.50;99.90
22974;DHT22;11653;50.848;4.584;2023-04-09T01:44:18;6.40;99.90
22974;DHT22;11653;50.848;4.584;2023-04-09T01:46:49;6.40;99.90
22974;DHT22;11653;50.848;4.584;2023-04-09T01:49:15;6.40;99.90
22974;DHT22;11653;50.848;4.584;2023-04-09T01:51:42;6.40;99.90
22974;DHT22;11653;50.848;4.584;2023-04-09T01:54:08;6.30;99.90
22974;DHT22;11653;50.848;4.584;2023-04-09T01:56:44;6.30;99.90
22974;DHT22;11653;50.848;4.584;2023-04-09T01:59:10;6.30;99.90
22974;DHT22;11653;50.848;4.584;2023-04-09T02:01:47;6.30;99.90
22974;DHT22;11653;50.848;4.584;2023-04-09T02:04:29;6.40;99.90
22974;DHT22;11653;50.848;4.584;2023-04-09T02:06:58;6.40;99.90
22974;DHT22;11653;50.848;4.584;2023-04-09T02:09:29;6.30;99.90
22974;DHT22;11653;50.848;4.584;2023-04-09T02:11:57;6.30;99.90
22974;DHT22;11653;50.848;4.584;2023-04-09T02:14:25;6.30;99.90
22974;DHT22;11653;50.848;4.584;2023-04-09T02:16:52;6.30;99.90
22974;DHT22;11653;50.848;4.584;2023-04-09T02:19:17;6.40;99.90
22974;DHT22;11653;50.848;4.584;2023-04-09T02:21:43;6.30;99.90
22974;DHT22;11653;50.848;4.584;2023-04-09T02:24:09;6.30;99.90
22974;DHT22;11653;50.848;4.584;2023-04-09T02:26:34;6.30;99.90
22974;DHT22;11653;50.848;4.584;2023-04-09T02:29:00;6.20;99.90
22974;DHT22;11653;50.848;4.584;2023-04-09T02:31:26;6.30;99.90
22974;DHT22;11653;50.848;4.584;2023-04-09T02:33:51;6.20;99.90
22974;DHT22;11653;50.848;4.584;2023-04-09T02:36:18;6.20;99.90
22974;DHT22;11653;50.848;4.584;2023-04-09T02:38:44;6.10;99.90
22974;DHT22;11653;50.848;4.584;2023-04-09T02:41:09;6.10;99.90
22974;DHT22;11653;50.848;4.584;2023-04-09T02:43:35;6.10;99.90
22974;DHT22;11653;50.848;4.584;2023-04-09T02:46:01;6.10;99.90
22974;DHT22;11653;50.848;4.584;2023-04-09T02:48:27;6.00;99.90
22974;DHT22;11653;50.848;4.584;2023-04-09T02:50:53;6.00;99.90
22974;DHT22;11653;50.848;4.584;2023-04-09T02:53:18;6.00;99.90
22974;DHT22;11653;50.848;4.584;2023-04-09T02:55:46;6.00;99.90
22974;DHT22;11653;50.848;4.584;2023-04-09T02:58:11;6.00;99.90
22974;DHT22;11653;50.848;4.584;2023-04-09T03:00:37;5.90;99.90
22974;DHT22;11653;50.848;4.584;2023-04-09T03:03:03;5.90;99.90
22974;DHT22;11653;50.848;4.584;2023-04-09T03:05:28;5.90;99.90
22974;DHT22;11653;50.848;4.584;2023-04-09T03:07:55;5.90;99.90
22974;DHT22;11653;50.848;4.584;2023-04-09T03:10:21;5.80;99.90
22974;DHT22;11653;50.848;4.584;2023-04-09T03:12:46;5.80;99.90
22974;DHT22;11653;50.848;4.584;2023-04-09T03:15:12;5.80;99.90
22974;DHT22;11653;50.848;4.584;2023-04-09T03:17:38;5.80;99.90
22974;DHT22;11653;50.848;4.584;2023-04-09T03:20:08;5.80;99.90
22974;DHT22;11653;50.848;4.584;2023-04-09T03:22:38;5.80;99.90
22974;DHT22;11653;50.848;4.584;2023-04-09T03:25:04;5.80;99.90
22974;DHT22;11653;50.848;4.584;2023-04-09T03:27:31;5.80;99.90
22974;DHT22;11653;50.848;4.584;2023-04-09T03:29:57;5.80;99.90
22974;DHT22;11653;50.848;4.584;2023-04-09T03:32:23;5.80;99.90
22974;DHT22;11653;50.848;4.584;2023-04-09T03:34:48;5.80;99.90
22974;DHT22;11653;50.848;4.584;2023-04-09T03:37:14;5.70;99.90
22974;DHT22;11653;50.848;4.584;2023-04-09T03:39:39;5.60;99.90
22974;DHT22;11653;50.848;4.584;2023-04-09T03:42:05;5.60;99.90
22974;DHT22;11653;50.848;4.584;2023-04-09T03:44:31;5.50;99.90
22974;DHT22;11653;50.848;4.584;2023-04-09T03:46:57;5.60;99.90
22974;DHT22;11653;50.848;4.584;2023-04-09T03:49:22;5.70;99.90
22974;DHT22;11653;50.848;4.584;2023-04-09T03:51:48;5.60;99.90
22974;DHT22;11653;50.848;4.584;2023-04-09T03:54:14;5.60;99.90
22974;DHT22;11653;50.848;4.584;2023-04-09T03:56:39;5.50;99.90
22974;DHT22;11653;50.848;4.584;2023-04-09T03:59:05;5.40;99.90
22974;DHT22;11653;50.848;4.584;2023-04-09T04:01:31;5.40;99.90
22974;DHT22;11653;50.848;4.584;2023-04-09T04:03:57;5.40;99.90
22974;DHT22;11653;50.848;4.584;2023-04-09T04:06:22;5.40;99.90
22974;DHT22;11653;50.848;4.584;2023-04-09T04:08:48;5.50;99.90
22974;DHT22;11653;50.848;4.584;2023-04-09T04:11:14;5.40;99.90
22974;DHT22;11653;50.848;4.584;2023-04-09T04:13:39;5.40;99.90
22974;DHT22;11653;50.848;4.584;2023-04-09T04:16:09;5.40;99.90
22974;DHT22;11653;50.848;4.584;2023-04-09T04:18:35;5.40;99.90
22974;DHT22;11653;50.848;4.584;2023-04-09T04:21:01;5.30;99.90
22974;DHT22;11653;50.848;4.584;2023-04-09T04:23:27;5.30;99.90
22974;DHT22;11653;50.848;4.584;2023-04-09T04:25:52;5.30;99.90
22974;DHT22;11653;50.848;4.584;2023-04-09T04:28:18;5.30;99.90
22974;DHT22;11653;50.848;4.584;2023-04-09T04:30:44;5.30;99.90
22974;DHT22;11653;50.848;4.584;2023-04-09T04:33:09;5.20;99.90
22974;DHT22;11653;50.848;4.584;2023-04-09T04:35:35;5.20;99.90
22974;DHT22;11653;50.848;4.584;2023-04-09T04:38:01;5.20;99.90
22974;DHT22;11653;50.848;4.584;2023-04-09T04:40:27;5.20;99.90
22974;DHT22;11653;50.848;4.584;2023-04-09T04:42:52;5.10;99.90
22974;DHT22;11653;50.848;4.584;2023-04-09T04:45:18;5.00;99.90
22974;DHT22;11653;50.848;4.584;2023-04-09T04:47:44;5.00;99.90
22974;DHT22;11653;50.848;4.584;2023-04-09T04:50:09;5.10;99.90
22974;DHT22;11653;50.848;4.584;2023-04-09T04:52:35;5.10;99.90
22974;DHT22;11653;50.848;4.584;2023-04-09T04:55:01;5.10;99.90
22974;DHT22;11653;50.848;4.584;2023-04-09T04:57:27;5.10;99.90
22974;DHT22;11653;50.848;4.584;2023-04-09T04:59:52;5.10;99.90
22974;DHT22;11653;50.848;4.584;2023-04-09T05:02:18;5.10;99.90
22974;DHT22;11653;50.848;4.584;2023-04-09T05:04:44;5.00;99.90
22974;DHT22;11653;50.848;4.584;2023-04-09T05:07:11;5.10;99.90
22974;DHT22;11653;50.848;4.584;2023-04-09T05:09:36;5.10;99.90
22974;DHT22;11653;50.848;4.584;2023-04-09T05:12:02;5.10;99.90
22974;DHT22;11653;50.848;4.584;2023-04-09T05:14:28;5.00;99.90
22974;DHT22;11653;50.848;4.584;2023-04-09T05:16:53;5.10;99.90
22974;DHT22;11653;50.848;4.584;2023-04-09T05:19:19;5.00;99.90
22974;DHT22;11653;50.848;4.584;2023-04-09T05:21:45;5.00;99.90
22974;DHT22;11653;50.848;4.584;2023-04-09T05:24:10;5.00;99.90
22974;DHT22;11653;50.848;4.584;2023-04-09T05:26:36;5.10;99.90
22974;DHT22;11653;50.848;4.584;2023-04-09T05:29:02;5.20;99.90
22974;DHT22;11653;50.848;4.584;2023-04-09T05:31:27;5.20;99.90
22974;DHT22;11653;50.848;4.584;2023-04-09T05:33:53;5.30;99.90
22974;DHT22;11653;50.848;4.584;2023-04-09T05:36:19;5.40;99.90
22974;DHT22;11653;50.848;4.584;2023-04-09T05:38:47;5.60;99.90
22974;DHT22;11653;50.848;4.584;2023-04-09T05:41:13;5.70;99.90
22974;DHT22;11653;50.848;4.584;2023-04-09T05:43:39;5.90;99.90
22974;DHT22;11653;50.848;4.584;2023-04-09T05:46:05;6.10;99.90
22974;DHT22;11653;50.848;4.584;2023-04-09T05:48:33;6.30;99.90
22974;DHT22;11653;50.848;4.584;2023-04-09T05:50:59;6.60;99.90
22974;DHT22;11653;50.848;4.584;2023-04-09T05:53:24;6.90;99.90
22974;DHT22;11653;50.848;4.584;2023-04-09T05:55:50;7.10;99.90
22974;DHT22;11653;50.848;4.584;2023-04-09T05:58:17;7.40;99.90
22974;DHT22;11653;50.848;4.584;2023-04-09T06:00:48;7.60;99.90
22974;DHT22;11653;50.848;4.584;2023-04-09T06:03:16;8.00;99.90
22974;DHT22;11653;50.848;4.584;2023-04-09T06:05:43;8.20;99.90
22974;DHT22;11653;50.848;4.584;2023-04-09T06:08:09;8.60;99.90
22974;DHT22;11653;50.848;4.584;2023-04-09T06:10:34;8.90;99.90
22974;DHT22;11653;50.848;4.584;2023-04-09T06:13:00;9.10;99.90
22974;DHT22;11653;50.848;4.584;2023-04-09T06:15:27;9.30;99.90
22974;DHT22;11653;50.848;4.584;2023-04-09T06:17:54;9.60;99.90
22974;DHT22;11653;50.848;4.584;2023-04-09T06:20:20;9.90;99.90
22974;DHT22;11653;50.848;4.584;2023-04-09T06:22:48;10.20;99.90
22974;DHT22;11653;50.848;4.584;2023-04-09T06:25:14;10.60;99.90
22974;DHT22;11653;50.848;4.584;2023-04-09T06:27:40;11.00;99.90
22974;DHT22;11653;50.848;4.584;2023-04-09T06:30:07;11.40;99.90
22974;DHT22;11653;50.848;4.584;2023-04-09T06:32:33;11.80;99.90
22974;DHT22;11653;50.848;4.584;2023-04-09T06:34:59;12.30;99.90
22974;DHT22;11653;50.848;4.584;2023-04-09T06:37:24;12.80;99.90
22974;DHT22;11653;50.848;4.584;2023-04-09T06:39:50;13.30;99.90
22974;DHT22;11653;50.848;4.584;2023-04-09T06:42:16;13.70;99.90
22974;DHT22;11653;50.848;4.584;2023-04-09T06:44:45;14.20;99.90
22974;DHT22;11653;50.848;4.584;2023-04-09T06:47:12;14.70;99.90
22974;DHT22;11653;50.848;4.584;2023-04-09T06:49:39;15.10;99.90
22974;DHT22;11653;50.848;4.584;2023-04-09T06:52:05;15.60;99.90
22974;DHT22;11653;50.848;4.584;2023-04-09T06:54:33;16.30;99.90
22974;DHT22;11653;50.848;4.584;2023-04-09T06:56:59;16.90;99.90
22974;DHT22;11653;50.848;4.584;2023-04-09T06:59:25;17.30;99.90
22974;DHT22;11653;50.848;4.584;2023-04-09T07:01:51;17.70;99.90
22974;DHT22;11653;50.848;4.584;2023-04-09T07:04:17;18.10;98.50
22974;DHT22;11653;50.848;4.584;2023-04-09T07:06:43;18.70;97.70
22974;DHT22;11653;50.848;4.584;2023-04-09T07:09:08;19.30;97.20
22974;DHT22;11653;50.848;4.584;2023-04-09T07:11:34;19.10;95.10
22974;DHT22;11653;50.848;4.584;2023-04-09T07:14:00;18.90;94.90
22974;DHT22;11653;50.848;4.584;2023-04-09T07:16:25;18.80;95.50
22974;DHT22;11653;50.848;4.584;2023-04-09T07:18:51;19.00;95.70
22974;DHT22;11653;50.848;4.584;2023-04-09T07:21:17;19.20;94.80
22974;DHT22;11653;50.848;4.584;2023-04-09T07:23:42;19.40;94.50
22974;DHT22;11653;50.848;4.584;2023-04-09T07:26:09;19.50;94.50
22974;DHT22;11653;50.848;4.584;2023-04-09T07:28:36;19.40;93.60
22974;DHT22;11653;50.848;4.584;2023-04-09T07:31:01;19.40;93.80
22974;DHT22;11653;50.848;4.584;2023-04-09T07:33:28;19.60;93.40
22974;DHT22;11653;50.848;4.584;2023-04-09T07:35:53;19.70;92.90
22974;DHT22;11653;50.848;4.584;2023-04-09T07:38:20;19.40;93.70
22974;DHT22;11653;50.848;4.584;2023-04-09T07:40:46;19.60;93.20
22974;DHT22;11653;50.848;4.584;2023-04-09T07:43:11;20.10;93.20
22974;DHT22;11653;50.848;4.584;2023-04-09T07:45:37;20.30;92.00
22974;DHT22;11653;50.848;4.584;2023-04-09T07:48:03;20.50;91.40
22974;DHT22;11653;50.848;4.584;2023-04-09T07:50:29;20.50;91.10
22974;DHT22;11653;50.848;4.584;2023-04-09T07:53:02;20.70;90.60
22974;DHT22;11653;50.848;4.584;2023-04-09T07:55:30;21.10;90.70
22974;DHT22;11653;50.848;4.584;2023-04-09T07:58:17;21.40;90.30
22974;DHT22;11653;50.848;4.584;2023-04-09T08:00:48;21.70;88.70
22974;DHT22;11653;50.848;4.584;2023-04-09T08:03:13;21.70;86.80
22974;DHT22;11653;50.848;4.584;2023-04-09T08:05:42;22.10;85.70
22974;DHT22;11653;50.848;4.584;2023-04-09T08:08:08;22.40;82.70
22974;DHT22;11653;50.848;4.584;2023-04-09T08:10:33;22.70;81.10
22974;DHT22;11653;50.848;4.584;2023-04-09T08:12:59;22.90;80.50
22974;DHT22;11653;50.848;4.584;2023-04-09T08:15:25;23.00;78.80
22974;DHT22;11653;50.848;4.584;2023-04-09T08:17:51;23.30;78.60
22974;DHT22;11653;50.848;4.584;2023-04-09T08:20:17;23.60;77.80
22974;DHT22;11653;50.848;4.584;2023-04-09T08:22:43;23.70;77.30
22974;DHT22;11653;50.848;4.584;2023-04-09T08:25:14;23.90;77.50
22974;DHT22;11653;50.848;4.584;2023-04-09T08:27:43;24.20;75.20
22974;DHT22;11653;50.848;4.584;2023-04-09T08:30:10;24.40;73.00
22974;DHT22;11653;50.848;4.584;2023-04-09T08:32:36;24.70;73.30
22974;DHT22;11653;50.848;4.584;2023-04-09T08:35:02;25.00;71.50
22974;DHT22;11653;50.848;4.584;2023-04-09T08:37:27;25.50;71.80
22974;DHT22;11653;50.848;4.584;2023-04-09T08:39:55;25.90;70.00
22974;DHT22;11653;50.848;4.584;2023-04-09T08:42:21;25.60;68.50
22974;DHT22;11653;50.848;4.584;2023-04-09T08:44:49;25.80;68.70
22974;DHT22;11653;50.848;4.584;2023-04-09T08:47:18;25.90;67.10
22974;DHT22;11653;50.848;4.584;2023-04-09T08:49:45;26.30;67.50
22974;DHT22;11653;50.848;4.584;2023-04-09T08:52:13;26.50;66.40
22974;DHT22;11653;50.848;4.584;2023-04-09T08:54:45;27.00;64.40
22974;DHT22;11653;50.848;4.584;2023-04-09T08:57:15;27.10;64.40
22974;DHT22;11653;50.848;4.584;2023-04-09T08:59:47;27.20;62.10
22974;DHT22;11653;50.848;4.584;2023-04-09T09:02:14;27.20;61.90
22974;DHT22;11653;50.848;4.584;2023-04-09T09:04:45;27.00;61.90
22974;DHT22;11653;50.848;4.584;2023-04-09T09:07:11;27.00;62.80
22974;DHT22;11653;50.848;4.584;2023-04-09T09:10:04;27.00;60.60
22974;DHT22;11653;50.848;4.584;2023-04-09T09:15:28;27.40;60.40
22974;DHT22;11653;50.848;4.584;2023-04-09T09:17:59;27.60;60.00
22974;DHT22;11653;50.848;4.584;2023-04-09T09:20:28;27.20;60.30
22974;DHT22;11653;50.848;4.584;2023-04-09T09:22:55;27.40;60.00
22974;DHT22;11653;50.848;4.584;2023-04-09T09:25:21;27.80;59.20
22974;DHT22;11653;50.848;4.584;2023-04-09T09:27:52;28.40;58.40
22974;DHT22;11653;50.848;4.584;2023-04-09T09:30:23;28.40;58.30
22974;DHT22;11653;50.848;4.584;2023-04-09T09:33:10;28.10;57.50
22974;DHT22;11653;50.848;4.584;2023-04-09T09:35:52;28.30;57.10
22974;DHT22;11653;50.848;4.584;2023-04-09T09:38:20;28.40;56.60
22974;DHT22;11653;50.848;4.584;2023-04-09T09:40:48;27.70;58.50
22974;DHT22;11653;50.848;4.584;2023-04-09T09:43:14;27.80;58.20
22974;DHT22;11653;50.848;4.584;2023-04-09T09:45:40;28.00;58.10
22974;DHT22;11653;50.848;4.584;2023-04-09T09:48:09;28.30;57.30
22974;DHT22;11653;50.848;4.584;2023-04-09T09:50:37;28.10;56.10
22974;DHT22;11653;50.848;4.584;2023-04-09T09:53:04;28.60;56.00
22974;DHT22;11653;50.848;4.584;2023-04-09T09:55:41;29.00;54.70
22974;DHT22;11653;50.848;4.584;2023-04-09T09:58:16;29.40;54.70
22974;DHT22;11653;50.848;4.584;2023-04-09T10:00:45;29.40;54.20
22974;DHT22;11653;50.848;4.584;2023-04-09T10:03:39;29.10;54.40
22974;DHT22;11653;50.848;4.584;2023-04-09T10:06:05;28.60;55.00
22974;DHT22;11653;50.848;4.584;2023-04-09T10:08:32;28.60;55.70
22974;DHT22;11653;50.848;4.584;2023-04-09T10:11:02;28.60;54.50
22974;DHT22;11653;50.848;4.584;2023-04-09T10:13:34;28.90;54.30
22974;DHT22;11653;50.848;4.584;2023-04-09T10:16:00;29.50;54.30
22974;DHT22;11653;50.848;4.584;2023-04-09T10:18:27;29.90;53.50
22974;DHT22;11653;50.848;4.584;2023-04-09T10:21:04;30.00;51.90
22974;DHT22;11653;50.848;4.584;2023-04-09T10:23:40;29.90;51.70
22974;DHT22;11653;50.848;4.584;2023-04-09T10:26:07;29.70;52.40
22974;DHT22;11653;50.848;4.584;2023-04-09T10:28:33;28.90;52.70
22974;DHT22;11653;50.848;4.584;2023-04-09T10:30:59;28.30;54.30
22974;DHT22;11653;50.848;4.584;2023-04-09T10:33:26;28.00;55.50
22974;DHT22;11653;50.848;4.584;2023-04-09T10:35:53;28.30;55.70
22974;DHT22;11653;50.848;4.584;2023-04-09T10:38:36;28.60;54.60
22974;DHT22;11653;50.848;4.584;2023-04-09T10:43:39;29.80;52.50
22974;DHT22;11653;50.848;4.584;2023-04-09T10:46:23;29.60;51.20
22974;DHT22;11653;50.848;4.584;2023-04-09T10:49:16;29.50;51.80
22974;DHT22;11653;50.848;4.584;2023-04-09T10:51:51;29.80;50.50
22974;DHT22;11653;50.848;4.584;2023-04-09T10:59:37;29.90;50.60
22974;DHT22;11653;50.848;4.584;2023-04-09T11:02:19;30.40;50.80
22974;DHT22;11653;50.848;4.584;2023-04-09T11:05:18;30.60;48.90
22974;DHT22;11653;50.848;4.584;2023-04-09T11:07:48;31.10;50.10
22974;DHT22;11653;50.848;4.584;2023-04-09T11:10:16;30.70;49.30
22974;DHT22;11653;50.848;4.584;2023-04-09T11:12:42;30.40;49.80
22974;DHT22;11653;50.848;4.584;2023-04-09T11:15:18;30.30;49.10
22974;DHT22;11653;50.848;4.584;2023-04-09T11:17:45;30.40;50.30
22974;DHT22;11653;50.848;4.584;2023-04-09T11:20:16;30.80;48.20
22974;DHT22;11653;50.848;4.584;2023-04-09T11:22:44;31.40;48.20
22974;DHT22;11653;50.848;4.584;2023-04-09T11:25:09;31.90;47.20
22974;DHT22;11653;50.848;4.584;2023-04-09T11:27:43;32.10;47.20
22974;DHT22;11653;50.848;4.584;2023-04-09T11:30:09;32.10;46.50
22974;DHT22;11653;50.848;4.584;2023-04-09T11:32:34;31.50;47.70
22974;DHT22;11653;50.848;4.584;2023-04-09T11:35:00;30.80;48.20
22974;DHT22;11653;50.848;4.584;2023-04-09T11:37:26;30.00;48.80
22974;DHT22;11653;50.848;4.584;2023-04-09T11:39:53;28.70;50.90
22974;DHT22;11653;50.848;4.584;2023-04-09T11:42:19;27.80;53.30
22974;DHT22;11653;50.848;4.584;2023-04-09T11:44:47;27.40;52.60
22974;DHT22;11653;50.848;4.584;2023-04-09T11:47:14;27.00;53.90
22974;DHT22;11653;50.848;4.584;2023-04-09T11:49:42;26.70;55.40
22974;DHT22;11653;50.848;4.584;2023-04-09T11:52:08;26.50;52.80
22974;DHT22;11653;50.848;4.584;2023-04-09T11:54:35;25.50;55.30
22974;DHT22;11653;50.848;4.584;2023-04-09T11:57:04;26.60;54.30
22974;DHT22;11653;50.848;4.584;2023-04-09T11:59:30;27.40;52.60
22974;DHT22;11653;50.848;4.584;2023-04-09T12:01:59;28.70;51.80
22974;DHT22;11653;50.848;4.584;2023-04-09T12:04:25;29.60;49.20
22974;DHT22;11653;50.848;4.584;2023-04-09T12:06:55;30.10;48.40
22974;DHT22;11653;50.848;4.584;2023-04-09T12:09:23;29.80;47.80
22974;DHT22;11653;50.848;4.584;2023-04-09T12:11:49;29.60;49.20
22974;DHT22;11653;50.848;4.584;2023-04-09T12:14:16;29.90;48.00
22974;DHT22;11653;50.848;4.584;2023-04-09T12:16:42;29.70;47.90
22974;DHT22;11653;50.848;4.584;2023-04-09T12:19:10;29.50;48.80
22974;DHT22;11653;50.848;4.584;2023-04-09T12:21:52;29.40;48.30
22974;DHT22;11653;50.848;4.584;2023-04-09T12:24:23;29.00;48.90
22974;DHT22;11653;50.848;4.584;2023-04-09T12:26:49;28.10;50.40
22974;DHT22;11653;50.848;4.584;2023-04-09T12:29:17;27.30;52.20
22974;DHT22;11653;50.848;4.584;2023-04-09T12:31:43;26.30;51.00
22974;DHT22;11653;50.848;4.584;2023-04-09T12:34:09;25.30;53.30
22974;DHT22;11653;50.848;4.584;2023-04-09T12:36:37;24.60;54.60
22974;DHT22;11653;50.848;4.584;2023-04-09T12:39:03;24.00;56.40
22974;DHT22;11653;50.848;4.584;2023-04-09T12:41:29;23.70;57.20
22974;DHT22;11653;50.848;4.584;2023-04-09T12:43:55;23.30;57.60
22974;DHT22;11653;50.848;4.584;2023-04-09T12:46:20;23.00;58.70
22974;DHT22;11653;50.848;4.584;2023-04-09T12:48:46;22.10;60.60
22974;DHT22;11653;50.848;4.584;2023-04-09T12:51:12;21.80;61.80
22974;DHT22;11653;50.848;4.584;2023-04-09T12:53:38;21.60;62.50
22974;DHT22;11653;50.848;4.584;2023-04-09T12:56:05;21.70;64.30
22974;DHT22;11653;50.848;4.584;2023-04-09T12:58:31;21.80;62.50
22974;DHT22;11653;50.848;4.584;2023-04-09T13:00:57;21.80;62.00
22974;DHT22;11653;50.848;4.584;2023-04-09T13:03:23;21.50;61.50
22974;DHT22;11653;50.848;4.584;2023-04-09T13:05:50;21.40;62.40
22974;DHT22;11653;50.848;4.584;2023-04-09T13:08:16;21.50;63.10
22974;DHT22;11653;50.848;4.584;2023-04-09T13:10:42;21.50;64.40
22974;DHT22;11653;50.848;4.584;2023-04-09T13:13:08;21.10;63.60
22974;DHT22;11653;50.848;4.584;2023-04-09T13:15:40;20.50;64.50
22974;DHT22;11653;50.848;4.584;2023-04-09T13:18:10;20.40;66.60
22974;DHT22;11653;50.848;4.584;2023-04-09T13:20:35;20.60;65.60
22974;DHT22;11653;50.848;4.584;2023-04-09T13:23:01;20.80;66.90
22974;DHT22;11653;50.848;4.584;2023-04-09T13:25:27;20.80;67.10
22974;DHT22;11653;50.848;4.584;2023-04-09T13:27:53;20.90;66.30
22974;DHT22;11653;50.848;4.584;2023-04-09T13:30:21;20.80;66.00
22974;DHT22;11653;50.848;4.584;2023-04-09T13:32:47;20.80;64.30
22974;DHT22;11653;50.848;4.584;2023-04-09T13:35:12;20.60;64.90
22974;DHT22;11653;50.848;4.584;2023-04-09T13:37:38;20.70;64.80
22974;DHT22;11653;50.848;4.584;2023-04-09T13:40:04;20.80;63.80
22974;DHT22;11653;50.848;4.584;2023-04-09T13:42:30;20.20;64.50
22974;DHT22;11653;50.848;4.584;2023-04-09T13:44:56;20.20;65.00
22974;DHT22;11653;50.848;4.584;2023-04-09T13:47:22;20.00;66.10
22974;DHT22;11653;50.848;4.584;2023-04-09T13:49:48;19.90;66.80
22974;DHT22;11653;50.848;4.584;2023-04-09T13:52:15;19.60;67.40
22974;DHT22;11653;50.848;4.584;2023-04-09T13:54:41;19.30;68.30
22974;DHT22;11653;50.848;4.584;2023-04-09T13:57:07;18.90;69.40
22974;DHT22;11653;50.848;4.584;2023-04-09T13:59:33;19.00;69.40
22974;DHT22;11653;50.848;4.584;2023-04-09T14:01:58;18.80;69.20
22974;DHT22;11653;50.848;4.584;2023-04-09T14:04:24;18.60;70.80
22974;DHT22;11653;50.848;4.584;2023-04-09T14:06:50;18.40;71.50
22974;DHT22;11653;50.848;4.584;2023-04-09T14:09:16;18.60;71.10
22974;DHT22;11653;50.848;4.584;2023-04-09T14:11:41;18.80;70.00
22974;DHT22;11653;50.848;4.584;2023-04-09T14:14:07;19.10;70.10
22974;DHT22;11653;50.848;4.584;2023-04-09T14:16:33;19.10;70.70
22974;DHT22;11653;50.848;4.584;2023-04-09T14:18:58;18.90;70.60
22974;DHT22;11653;50.848;4.584;2023-04-09T14:21:24;18.70;72.60
22974;DHT22;11653;50.848;4.584;2023-04-09T14:23:51;18.90;70.00
22974;DHT22;11653;50.848;4.584;2023-04-09T14:26:16;18.70;67.10
22974;DHT22;11653;50.848;4.584;2023-04-09T14:28:43;18.40;68.40
22974;DHT22;11653;50.848;4.584;2023-04-09T14:31:09;18.40;70.40
22974;DHT22;11653;50.848;4.584;2023-04-09T14:33:34;18.60;69.70
22974;DHT22;11653;50.848;4.584;2023-04-09T14:36:00;18.90;68.80
22974;DHT22;11653;50.848;4.584;2023-04-09T14:38:26;18.90;67.70
22974;DHT22;11653;50.848;4.584;2023-04-09T14:40:52;19.10;68.80
22974;DHT22;11653;50.848;4.584;2023-04-09T14:43:17;19.40;66.30
22974;DHT22;11653;50.848;4.584;2023-04-09T14:45:43;19.50;69.30
22974;DHT22;11653;50.848;4.584;2023-04-09T14:48:09;19.20;69.30
22974;DHT22;11653;50.848;4.584;2023-04-09T14:50:35;18.70;70.10
22974;DHT22;11653;50.848;4.584;2023-04-09T14:53:01;18.80;70.80
22974;DHT22;11653;50.848;4.584;2023-04-09T14:55:27;18.60;71.70
22974;DHT22;11653;50.848;4.584;2023-04-09T14:57:53;18.70;72.80
22974;DHT22;11653;50.848;4.584;2023-04-09T15:00:19;18.50;72.80
22974;DHT22;11653;50.848;4.584;2023-04-09T15:02:45;18.60;72.70
22974;DHT22;11653;50.848;4.584;2023-04-09T15:05:12;18.70;73.40
22974;DHT22;11653;50.848;4.584;2023-04-09T15:07:38;19.00;72.20
22974;DHT22;11653;50.848;4.584;2023-04-09T15:10:04;18.60;69.10
22974;DHT22;11653;50.848;4.584;2023-04-09T15:12:31;18.30;70.00
22974;DHT22;11653;50.848;4.584;2023-04-09T15:14:57;18.10;70.10
22974;DHT22;11653;50.848;4.584;2023-04-09T15:17:23;18.10;71.70
22974;DHT22;11653;50.848;4.584;2023-04-09T15:19:51;18.10;71.40
22974;DHT22;11653;50.848;4.584;2023-04-09T15:22:17;18.10;71.40
22974;DHT22;11653;50.848;4.584;2023-04-09T15:24:43;18.00;74.30
22974;DHT22;11653;50.848;4.584;2023-04-09T15:27:09;18.00;73.90
22974;DHT22;11653;50.848;4.584;2023-04-09T15:29:34;18.20;73.10
22974;DHT22;11653;50.848;4.584;2023-04-09T15:32:00;18.50;72.30
22974;DHT22;11653;50.848;4.584;2023-04-09T15:34:27;18.90;71.30
22974;DHT22;11653;50.848;4.584;2023-04-09T15:36:53;19.00;70.20
22974;DHT22;11653;50.848;4.584;2023-04-09T15:39:18;19.10;69.40
22974;DHT22;11653;50.848;4.584;2023-04-09T15:41:44;19.10;69.20
22974;DHT22;11653;50.848;4.584;2023-04-09T15:44:10;19.40;66.60
22974;DHT22;11653;50.848;4.584;2023-04-09T15:46:39;19.50;67.30
22974;DHT22;11653;50.848;4.584;2023-04-09T15:49:05;19.60;67.10
22974;DHT22;11653;50.848;4.584;2023-04-09T15:51:30;19.80;65.80
22974;DHT22;11653;50.848;4.584;2023-04-09T15:53:57;19.80;65.40
22974;DHT22;11653;50.848;4.584;2023-04-09T15:56:23;19.80;65.40
22974;DHT22;11653;50.848;4.584;2023-04-09T15:58:48;19.50;67.10